Time;durP1;ratioP1;P1;durP2;ratioP2;P2;SDS_P1;SDS_P2;PMS_P1;PMS_P2;Temp;Humidity;BMP_temperature;BMP_pressure;BME280_temperature;BME280_humidity;BME280_pressure;Samples;Min_cycle;Max_cycle;Signal;HPM_P1;HPM_P2
2023/03/03 00:01:24;;;;;;;57.25;50.47;;;5.50;99.90;;;;;;5051989;28;20032;-60
2023/03/03 00:03:50;;;;;;;62.95;54.50;;;5.40;99.90;;;;;;5051894;28;20029;-60
2023/03/03 00:06:15;;;;;;;55.45;49.42;;;5.40;99.90;;;;;;5051343;28;20024;-60
2023/03/03 00:08:41;;;;;;;57.17;50.97;;;5.40;99.90;;;;;;5051756;28;20032;-60
2023/03/03 00:11:08;;;;;;;54.70;48.80;;;5.40;99.90;;;;;;5051712;28;20036;-60
2023/03/03 00:13:50;;;;;;;57.65;51.35;;;5.30;99.90;;;;;;5051506;28;20140;-60
2023/03/03 00:16:24;;;;;;;54.28;48.42;;;5.30;99.90;;;;;;5051594;28;20028;-60
2023/03/03 00:18:51;;;;;;;56.40;49.40;;;5.30;99.90;;;;;;5052164;28;20044;-60
2023/03/03 00:21:40;;;;;;;54.50;48.47;;;5.30;99.90;;;;;;5051300;28;20401;-60
2023/03/03 00:24:24;;;;;;;53.30;47.35;;;5.30;99.90;;;;;;5051554;28;20417;-60
2023/03/03 00:26:56;;;;;;;53.10;47.50;;;5.40;99.90;;;;;;5051572;28;20045;-60
2023/03/03 00:29:36;;;;;;;51.63;46.15;;;5.30;99.90;;;;;;5051586;28;20032;-60
2023/03/03 00:32:16;;;;;;;52.70;47.03;;;5.30;99.90;;;;;;5051547;28;20033;-60
2023/03/03 00:34:43;;;;;;;55.05;49.25;;;5.30;99.90;;;;;;5051163;28;20482;-59
2023/03/03 00:37:28;;;;;;;52.60;47.00;;;5.20;99.90;;;;;;5051378;28;20379;-60
2023/03/03 00:40:19;;;;;;;54.45;48.50;;;5.20;99.90;;;;;;5055345;28;20107;-60
2023/03/03 00:42:58;;;;;;;56.42;50.28;;;5.20;99.90;;;;;;5054694;28;20029;-60
2023/03/03 00:45:47;;;;;;;53.60;47.78;;;5.30;99.90;;;;;;5055218;28;20447;-60
2023/03/03 00:48:25;;;;;;;52.80;47.25;;;5.20;99.90;;;;;;5051284;28;20033;-60
2023/03/03 00:50:56;;;;;;;51.53;46.03;;;5.30;99.90;;;;;;5054948;28;20134;-60
2023/03/03 00:53:23;;;;;;;49.97;44.67;;;5.30;99.90;;;;;;5054880;28;20032;-60
2023/03/03 00:55:51;;;;;;;54.42;48.53;;;5.30;99.90;;;;;;5055055;28;20025;-59
2023/03/03 00:58:20;;;;;;;54.35;48.53;;;5.30;99.90;;;;;;5054723;28;20029;-59
2023/03/03 01:00:50;;;;;;;55.72;49.85;;;5.30;99.90;;;;;;5054807;28;20021;-60
2023/03/03 01:03:22;;;;;;;54.33;48.35;;;5.10;99.90;;;;;;5054787;28;20028;-60
2023/03/03 01:05:48;;;;;;;52.45;47.05;;;5.20;99.90;;;;;;5054516;28;20021;-60
2023/03/03 01:08:14;;;;;;;53.22;47.53;;;5.20;99.90;;;;;;5054862;28;20040;-60
2023/03/03 01:10:49;;;;;;;52.00;46.20;;;5.10;99.90;;;;;;5054629;28;20036;-60
2023/03/03 01:13:16;;;;;;;50.80;45.35;;;5.20;99.90;;;;;;5054473;28;20429;-60
2023/03/03 01:15:42;;;;;;;49.80;44.55;;;5.40;99.90;;;;;;5054711;28;20513;-60
2023/03/03 01:18:10;;;;;;;50.40;45.08;;;5.40;99.90;;;;;;5054616;28;20029;-61
2023/03/03 01:20:36;;;;;;;51.45;45.65;;;5.30;99.90;;;;;;5054271;28;20105;-59
2023/03/03 01:23:02;;;;;;;50.35;45.08;;;5.20;99.90;;;;;;5054522;28;20104;-60
2023/03/03 01:25:28;;;;;;;51.55;45.88;;;5.10;99.90;;;;;;5054436;28;20506;-60
2023/03/03 01:27:54;;;;;;;50.17;44.85;;;5.10;99.90;;;;;;5054693;28;20402;-60
2023/03/03 01:30:20;;;;;;;50.25;44.95;;;5.00;99.90;;;;;;5054156;28;20032;-59
2023/03/03 01:32:46;;;;;;;49.88;44.65;;;5.00;99.90;;;;;;5053947;28;20029;-59
2023/03/03 01:35:12;;;;;;;51.38;45.92;;;5.10;99.90;;;;;;5054192;28;20032;-60
2023/03/03 01:37:37;;;;;;;52.80;47.05;;;5.00;99.90;;;;;;5052859;28;20032;-60
2023/03/03 01:40:12;;;;;;;51.67;46.17;;;4.90;99.90;;;;;;5054060;28;20036;-60
2023/03/03 01:42:37;;;;;;;52.72;47.15;;;4.90;99.90;;;;;;5054165;28;20025;-60
2023/03/03 01:45:23;;;;;;;52.05;46.45;;;4.90;99.90;;;;;;5054023;28;20032;-60
2023/03/03 01:48:00;;;;;;;52.53;46.80;;;4.90;99.90;;;;;;5053686;28;20024;-60
2023/03/03 01:50:49;;;;;;;51.35;46.08;;;4.80;99.90;;;;;;5053001;28;20033;-60
2023/03/03 01:53:21;;;;;;;52.47;46.80;;;4.90;99.90;;;;;;5053918;28;20033;-60
2023/03/03 01:55:50;;;;;;;52.35;46.80;;;4.90;99.90;;;;;;5054198;28;20431;-60
2023/03/03 01:58:24;;;;;;;52.83;47.08;;;4.90;99.90;;;;;;5053715;28;20028;-60
2023/03/03 02:00:56;;;;;;;52.10;46.53;;;4.80;99.90;;;;;;5053718;28;20025;-60
2023/03/03 02:03:23;;;;;;;55.00;46.83;;;4.80;99.90;;;;;;5053476;28;20094;-60
2023/03/03 02:05:51;;;;;;;51.45;45.92;;;4.80;99.90;;;;;;5053517;28;20115;-60
2023/03/03 02:08:21;;;;;;;50.17;44.78;;;4.80;99.90;;;;;;5053599;28;20416;-60
2023/03/03 02:10:47;;;;;;;49.72;44.50;;;4.90;99.90;;;;;;5053312;28;20052;-59
2023/03/03 02:13:14;;;;;;;52.15;46.65;;;4.80;99.90;;;;;;5053828;28;20041;-60
2023/03/03 02:15:40;;;;;;;52.22;46.60;;;4.80;99.90;;;;;;5053445;28;20037;-60
2023/03/03 02:18:10;;;;;;;51.38;45.80;;;4.80;99.90;;;;;;5053087;28;20025;-60
2023/03/03 02:21:06;;;;;;;51.03;45.60;;;4.70;99.90;;;;;;5053202;28;20478;-60
2023/03/03 02:23:43;;;;;;;51.53;46.08;;;4.90;99.90;;;;;;5053211;28;20029;-60
2023/03/03 02:26:13;;;;;;;52.17;46.72;;;5.00;99.90;;;;;;5053478;28;20032;-60
2023/03/03 02:28:39;;;;;;;52.25;46.70;;;4.90;99.90;;;;;;5053111;28;20486;-60
2023/03/03 02:31:12;;;;;;;51.95;46.45;;;4.80;99.90;;;;;;5052599;28;20600;-60
2023/03/03 02:33:42;;;;;;;53.15;47.50;;;4.80;99.90;;;;;;5052983;28;20036;-60
2023/03/03 02:36:14;;;;;;;53.78;47.50;;;4.80;99.90;;;;;;5053211;28;20029;-60
2023/03/03 02:39:11;;;;;;;52.35;46.63;;;4.70;99.90;;;;;;5052877;28;20040;-59
2023/03/03 02:41:58;;;;;;;50.78;45.40;;;4.80;99.90;;;;;;5052924;28;20024;-60
2023/03/03 02:44:26;;;;;;;52.65;47.25;;;4.80;99.90;;;;;;5052731;28;20053;-60
2023/03/03 02:46:54;;;;;;;52.78;47.10;;;4.80;99.90;;;;;;5052838;28;20037;-59
2023/03/03 02:49:26;;;;;;;51.97;46.83;;;4.70;99.90;;;;;;5052607;28;20025;-59
2023/03/03 02:51:53;;;;;;;53.13;47.50;;;4.80;99.90;;;;;;5052762;28;20147;-59
2023/03/03 02:54:21;;;;;;;51.25;45.92;;;4.80;99.90;;;;;;5052707;28;20512;-59
2023/03/03 02:56:47;;;;;;;51.55;46.28;;;4.80;99.90;;;;;;5052591;28;20024;-60
2023/03/03 02:59:13;;;;;;;51.67;45.30;;;4.70;99.90;;;;;;5052735;28;20509;-60
2023/03/03 03:01:39;;;;;;;54.22;48.13;;;4.70;99.90;;;;;;5052453;28;20486;-59
2023/03/03 03:04:16;;;;;;;52.88;47.20;;;4.70;99.90;;;;;;5052470;28;20073;-59
2023/03/03 03:06:43;;;;;;;53.20;47.65;;;4.70;99.90;;;;;;5052174;28;20036;-60
2023/03/03 03:09:10;;;;;;;53.00;47.47;;;4.70;99.90;;;;;;5052819;28;20032;-60
2023/03/03 03:11:37;;;;;;;50.58;45.05;;;4.70;99.90;;;;;;5052433;28;20040;-59
2023/03/03 03:14:04;;;;;;;51.15;45.60;;;4.80;99.90;;;;;;5052161;28;20074;-60
2023/03/03 03:16:30;;;;;;;51.03;45.65;;;4.90;99.90;;;;;;5052068;28;20035;-60
2023/03/03 03:18:57;;;;;;;49.17;44.05;;;4.90;99.90;;;;;;5052477;28;20386;-59
2023/03/03 03:21:23;;;;;;;49.92;44.63;;;4.90;99.90;;;;;;5052288;28;20041;-60
2023/03/03 03:23:49;;;;;;;51.92;46.45;;;4.90;99.90;;;;;;5052312;28;20019;-60
2023/03/03 03:26:14;;;;;;;52.47;46.80;;;4.80;99.90;;;;;;5052179;28;20509;-60
2023/03/03 03:28:40;;;;;;;50.42;45.08;;;4.80;99.90;;;;;;5051861;28;20099;-60
2023/03/03 03:31:07;;;;;;;51.80;46.30;;;4.80;99.90;;;;;;5052056;28;20036;-60
2023/03/03 03:33:34;;;;;;;49.92;44.78;;;4.80;99.90;;;;;;5052004;28;20493;-60
2023/03/03 03:36:00;;;;;;;50.00;44.65;;;4.80;99.90;;;;;;5052087;28;20036;-60
2023/03/03 03:38:28;;;;;;;51.15;45.90;;;4.90;99.90;;;;;;5050809;28;20021;-60
2023/03/03 03:40:54;;;;;;;50.47;45.13;;;4.90;99.90;;;;;;5052245;28;20025;-60
2023/03/03 03:43:20;;;;;;;50.00;44.80;;;4.80;99.90;;;;;;5050411;28;20505;-60
2023/03/03 03:45:46;;;;;;;50.40;44.90;;;4.70;99.90;;;;;;5052347;28;20036;-60
2023/03/03 03:48:12;;;;;;;50.30;44.85;;;4.90;99.90;;;;;;5051969;28;20017;-59
2023/03/03 03:50:38;;;;;;;52.20;45.63;;;4.80;99.90;;;;;;5051878;28;20033;-60
2023/03/03 03:53:05;;;;;;;50.78;45.38;;;4.70;99.90;;;;;;5052056;28;20055;-60
2023/03/03 03:55:31;;;;;;;51.17;45.92;;;4.70;99.90;;;;;;5051858;28;20100;-60
2023/03/03 03:57:58;;;;;;;48.60;43.60;;;4.70;99.90;;;;;;5051531;28;20035;-59
2023/03/03 04:00:24;;;;;;;51.15;45.80;;;4.90;99.90;;;;;;5052009;28;20029;-60
2023/03/03 04:02:50;;;;;;;53.97;48.33;;;4.80;99.90;;;;;;5051917;28;20037;-60
2023/03/03 04:05:17;;;;;;;55.38;49.45;;;4.80;99.90;;;;;;5052233;28;20029;-59
2023/03/03 04:07:43;;;;;;;54.28;48.30;;;4.80;99.90;;;;;;5051817;28;20052;-60
2023/03/03 04:10:10;;;;;;;56.63;50.40;;;4.80;99.90;;;;;;5051676;28;20457;-60
2023/03/03 04:12:38;;;;;;;57.88;50.90;;;4.80;99.90;;;;;;5051928;28;20028;-60
2023/03/03 04:15:12;;;;;;;58.65;52.03;;;4.80;99.90;;;;;;5055561;28;20036;-60
2023/03/03 04:17:37;;;;;;;58.63;51.03;;;4.70;99.90;;;;;;5055649;28;20061;-60
2023/03/03 04:20:04;;;;;;;62.22;52.67;;;4.70;99.90;;;;;;5055569;28;20025;-60
2023/03/03 04:22:32;;;;;;;60.28;52.40;;;4.60;99.90;;;;;;5056021;28;20036;-60
2023/03/03 04:24:59;;;;;;;60.10;53.00;;;4.60;99.90;;;;;;5055573;28;20036;-60
2023/03/03 04:27:25;;;;;;;58.33;51.72;;;4.60;99.90;;;;;;5055261;28;20021;-60
2023/03/03 04:29:51;;;;;;;58.58;52.17;;;4.60;99.90;;;;;;5055253;28;20500;-60
2023/03/03 04:32:17;;;;;;;58.15;50.40;;;4.60;99.90;;;;;;5055293;28;20044;-60
2023/03/03 04:34:43;;;;;;;58.33;51.97;;;4.60;99.90;;;;;;5055282;28;20520;-60
2023/03/03 04:37:09;;;;;;;66.15;57.47;;;4.60;99.90;;;;;;5055798;28;20047;-60
2023/03/03 04:39:35;;;;;;;64.50;54.80;;;4.60;99.90;;;;;;5055318;28;20025;-60
2023/03/03 04:42:00;;;;;;;60.13;53.70;;;4.60;99.90;;;;;;5054886;28;20104;-60
2023/03/03 04:44:26;;;;;;;63.42;55.83;;;4.60;99.90;;;;;;5054819;28;20063;-60
2023/03/03 04:46:52;;;;;;;56.50;50.33;;;4.60;99.90;;;;;;5055515;28;20025;-60
2023/03/03 04:49:17;;;;;;;64.03;53.92;;;4.60;99.90;;;;;;5053485;28;20548;-60
2023/03/03 04:51:43;;;;;;;62.80;51.15;;;4.50;99.90;;;;;;5055113;28;20037;-60
2023/03/03 04:54:09;;;;;;;68.93;52.22;;;4.60;99.90;;;;;;5054957;28;20415;-60
2023/03/03 04:56:35;;;;;;;62.78;51.03;;;4.80;99.90;;;;;;5054615;28;20498;-60
2023/03/03 04:59:01;;;;;;;61.47;49.53;;;4.70;99.90;;;;;;5055240;28;20029;-60
2023/03/03 05:01:26;;;;;;;60.35;49.85;;;4.50;99.90;;;;;;5054737;28;20021;-60
2023/03/03 05:03:52;;;;;;;51.85;46.20;;;4.50;99.90;;;;;;5054870;28;20573;-60
2023/03/03 05:06:18;;;;;;;57.38;48.65;;;4.60;99.90;;;;;;5054706;28;20074;-60
2023/03/03 05:08:45;;;;;;;55.08;46.38;;;4.60;99.90;;;;;;5055055;28;20021;-61
2023/03/03 05:11:10;;;;;;;49.17;43.90;;;4.70;99.90;;;;;;5054377;28;20111;-60
2023/03/03 05:13:36;;;;;;;48.40;43.03;;;4.70;99.90;;;;;;5053129;28;20549;-61
2023/03/03 05:16:02;;;;;;;50.50;43.85;;;4.70;99.90;;;;;;5054630;28;20028;-60
2023/03/03 05:18:28;;;;;;;46.47;41.47;;;4.60;99.90;;;;;;5054445;28;20490;-60
2023/03/03 05:20:54;;;;;;;46.30;41.58;;;4.70;99.90;;;;;;5054767;28;20029;-61
2023/03/03 05:23:20;;;;;;;47.47;42.35;;;4.80;99.90;;;;;;5054455;28;20024;-61
2023/03/03 05:25:50;;;;;;;46.75;41.67;;;4.70;99.90;;;;;;5053027;28;20394;-60
2023/03/03 05:28:16;;;;;;;48.53;43.42;;;4.60;99.90;;;;;;5054288;28;20029;-60
2023/03/03 05:30:42;;;;;;;47.53;42.40;;;4.50;99.90;;;;;;5054131;28;20095;-60
2023/03/03 05:33:11;;;;;;;48.38;43.28;;;4.60;99.90;;;;;;5054159;28;20021;-61
2023/03/03 05:35:37;;;;;;;47.42;42.50;;;4.60;99.90;;;;;;5054686;28;20048;-61
2023/03/03 05:38:03;;;;;;;49.33;43.95;;;4.60;99.90;;;;;;5054162;28;20059;-60
2023/03/03 05:40:28;;;;;;;48.92;43.42;;;4.70;99.90;;;;;;5053821;28;20029;-61
2023/03/03 05:42:54;;;;;;;48.08;43.03;;;4.60;99.90;;;;;;5054182;28;20438;-60
2023/03/03 05:45:20;;;;;;;49.33;43.88;;;4.60;99.90;;;;;;5053939;28;20017;-60
2023/03/03 05:47:47;;;;;;;49.00;43.67;;;4.80;99.90;;;;;;5053909;28;20021;-60
2023/03/03 05:50:13;;;;;;;49.67;44.25;;;5.00;99.90;;;;;;5054033;28;20108;-60
2023/03/03 05:52:39;;;;;;;50.00;44.65;;;5.10;99.90;;;;;;5054352;28;20081;-60
2023/03/03 05:55:05;;;;;;;49.83;44.55;;;5.00;99.90;;;;;;5053512;28;20029;-60
2023/03/03 05:57:31;;;;;;;48.80;43.47;;;4.70;99.90;;;;;;5053580;28;20029;-60
2023/03/03 05:59:56;;;;;;;51.22;45.15;;;4.60;99.90;;;;;;5054175;28;20025;-60
2023/03/03 06:02:22;;;;;;;51.13;45.65;;;4.60;99.90;;;;;;5053709;28;20231;-60
2023/03/03 06:04:48;;;;;;;52.38;46.78;;;4.50;99.90;;;;;;5053667;28;20078;-60
2023/03/03 06:07:14;;;;;;;50.28;44.88;;;4.50;99.90;;;;;;5053686;28;20033;-60
2023/03/03 06:09:39;;;;;;;55.40;46.67;;;4.50;99.90;;;;;;5053412;28;20029;-60
2023/03/03 06:12:05;;;;;;;51.08;45.60;;;4.40;99.90;;;;;;5053367;28;20066;-60
2023/03/03 06:14:31;;;;;;;51.35;45.95;;;4.50;99.90;;;;;;5053356;28;20049;-60
2023/03/03 06:16:57;;;;;;;55.00;49.20;;;4.50;99.90;;;;;;5053686;28;20036;-60
2023/03/03 06:19:23;;;;;;;63.83;56.85;;;4.50;99.90;;;;;;5053444;28;20107;-60
2023/03/03 06:21:48;;;;;;;62.28;55.58;;;4.50;99.90;;;;;;5053245;28;20057;-60
2023/03/03 06:24:14;;;;;;;58.85;52.65;;;4.40;99.90;;;;;;5053348;28;20029;-60
2023/03/03 06:26:40;;;;;;;58.33;52.00;;;4.50;99.90;;;;;;5053190;28;20033;-60
2023/03/03 06:29:06;;;;;;;58.45;52.15;;;4.50;99.90;;;;;;5053232;28;20029;-60
2023/03/03 06:31:32;;;;;;;58.70;52.35;;;4.50;99.90;;;;;;5053093;28;20037;-60
2023/03/03 06:33:58;;;;;;;57.13;51.10;;;4.40;99.90;;;;;;5053413;28;20024;-60
2023/03/03 06:36:24;;;;;;;62.28;53.33;;;4.50;99.90;;;;;;5052753;28;20554;-60
2023/03/03 06:38:50;;;;;;;59.92;53.42;;;4.50;99.90;;;;;;5052603;28;20029;-60
2023/03/03 06:41:16;;;;;;;67.90;60.45;;;4.50;99.90;;;;;;5052793;28;20021;-60
2023/03/03 06:43:42;;;;;;;64.35;57.63;;;4.50;99.90;;;;;;5052898;28;20509;-60
2023/03/03 06:46:08;;;;;;;59.90;53.50;;;4.50;99.90;;;;;;5052859;28;20020;-60
2023/03/03 06:48:33;;;;;;;65.78;58.53;;;4.50;99.90;;;;;;5052772;28;20029;-60
2023/03/03 06:51:01;;;;;;;61.20;54.35;;;4.50;99.90;;;;;;5052716;28;20043;-60
2023/03/03 06:53:30;;;;;;;56.88;51.00;;;4.40;99.90;;;;;;5052670;28;20555;-60
2023/03/03 06:55:57;;;;;;;68.43;61.17;;;4.50;99.90;;;;;;5052587;28;20028;-60
2023/03/03 06:58:24;;;;;;;71.63;63.85;;;4.50;99.90;;;;;;5052735;28;20027;-60
2023/03/03 07:00:56;;;;;;;65.10;58.00;;;4.40;99.90;;;;;;5052517;28;20029;-59
2023/03/03 07:03:24;;;;;;;58.90;51.97;;;4.30;99.90;;;;;;5052578;28;20028;-60
2023/03/03 07:05:52;;;;;;;56.90;50.67;;;4.40;99.90;;;;;;5052618;28;20469;-59
2023/03/03 07:08:20;;;;;;;56.63;50.42;;;4.40;99.90;;;;;;5052193;28;20024;-59
2023/03/03 07:10:47;;;;;;;54.30;48.47;;;4.40;99.90;;;;;;5052488;28;20029;-60
2023/03/03 07:13:17;;;;;;;55.47;49.47;;;4.50;99.90;;;;;;5052387;28;20044;-60
2023/03/03 07:15:48;;;;;;;53.53;47.83;;;4.50;99.90;;;;;;5052525;28;20489;-60
2023/03/03 07:18:39;;;;;;;53.08;47.45;;;4.50;99.90;;;;;;5052131;28;20029;-58
2023/03/03 07:21:35;;;;;;;52.92;47.15;;;4.50;99.90;;;;;;5051763;28;20381;-59
2023/03/03 07:24:13;;;;;;;53.67;47.85;;;4.50;99.90;;;;;;5047343;28;20025;-59
2023/03/03 07:26:38;;;;;;;52.10;46.55;;;4.50;99.90;;;;;;5052356;28;20537;-59
2023/03/03 07:29:26;;;;;;;53.60;48.10;;;4.60;99.90;;;;;;5052477;28;20105;-59
2023/03/03 07:31:55;;;;;;;54.65;48.83;;;4.50;99.90;;;;;;5052648;28;20029;-58
2023/03/03 07:34:22;;;;;;;55.63;49.67;;;4.60;99.90;;;;;;5051946;28;20017;-58
2023/03/03 07:37:00;;;;;;;56.17;50.17;;;4.60;99.90;;;;;;5051627;28;20108;-59
2023/03/03 07:39:35;;;;;;;55.95;49.75;;;4.50;99.90;;;;;;5052108;28;20021;-59
2023/03/03 07:42:23;;;;;;;54.65;48.58;;;4.70;99.90;;;;;;5052053;28;20028;-59
2023/03/03 07:44:51;;;;;;;56.85;50.65;;;4.70;99.90;;;;;;5051522;28;20033;-59
2023/03/03 07:47:29;;;;;;;59.85;53.35;;;4.70;99.90;;;;;;5050641;28;20091;-58
2023/03/03 07:50:00;;;;;;;65.85;55.47;;;4.70;99.90;;;;;;5051297;28;20541;-58
2023/03/03 07:52:31;;;;;;;61.85;55.05;;;4.80;99.90;;;;;;5050993;28;20064;-58
2023/03/03 07:55:00;;;;;;;81.47;66.75;;;4.70;99.90;;;;;;5050989;28;20033;-60
2023/03/03 07:57:28;;;;;;;71.85;62.80;;;4.70;99.90;;;;;;5051396;28;20037;-59
2023/03/03 08:00:17;;;;;;;58.30;52.10;;;4.80;99.90;;;;;;5051663;28;20492;-59
2023/03/03 08:02:50;;;;;;;55.78;49.58;;;4.80;99.90;;;;;;5029629;28;20064;-59
2023/03/03 08:05:22;;;;;;;59.72;52.78;;;4.90;99.90;;;;;;5029404;28;20033;-59
2023/03/03 08:07:49;;;;;;;60.65;54.03;;;4.80;99.90;;;;;;5029944;28;20033;-60
2023/03/03 08:10:35;;;;;;;59.85;53.20;;;4.90;99.90;;;;;;5029328;28;20134;-59
2023/03/03 08:13:07;;;;;;;54.20;48.30;;;5.10;99.90;;;;;;5029360;28;20150;-59
2023/03/03 08:15:36;;;;;;;56.15;49.15;;;4.90;99.90;;;;;;5029697;28;20565;-59
2023/03/03 08:18:15;;;;;;;52.78;47.05;;;4.90;99.90;;;;;;5029974;28;20037;-59
2023/03/03 08:20:44;;;;;;;53.13;47.40;;;5.10;99.90;;;;;;5029008;28;20045;-59
2023/03/03 08:23:10;;;;;;;59.08;52.70;;;5.10;99.90;;;;;;5029486;28;20605;-60
2023/03/03 08:25:37;;;;;;;65.07;57.22;;;5.20;99.90;;;;;;5029527;28;20060;-60
2023/03/03 08:28:03;;;;;;;55.10;48.42;;;5.10;99.90;;;;;;5029470;28;20561;-59
2023/03/03 08:30:30;;;;;;;56.90;48.83;;;5.40;99.90;;;;;;5029340;28;20045;-59
2023/03/03 08:32:56;;;;;;;53.28;47.53;;;5.50;99.90;;;;;;5029351;28;20041;-59
2023/03/03 08:35:22;;;;;;;61.83;55.17;;;5.50;99.90;;;;;;5029164;28;20029;-59
2023/03/03 08:37:48;;;;;;;57.60;51.35;;;5.60;99.90;;;;;;5029414;28;20045;-59
2023/03/03 08:40:14;;;;;;;59.80;53.15;;;5.70;99.90;;;;;;5044799;28;20387;-59
2023/03/03 08:42:39;;;;;;;60.33;53.72;;;5.80;99.90;;;;;;5051364;28;20482;-59
2023/03/03 08:45:05;;;;;;;59.97;52.47;;;6.00;99.90;;;;;;5051478;28;20589;-60
2023/03/03 08:47:32;;;;;;;59.08;52.75;;;5.90;99.90;;;;;;5051747;28;20075;-60
2023/03/03 08:49:58;;;;;;;55.80;49.97;;;5.90;99.90;;;;;;5050990;28;20021;-59
2023/03/03 08:52:23;;;;;;;61.30;53.95;;;6.00;99.90;;;;;;5051338;28;20091;-59
2023/03/03 08:54:49;;;;;;;54.90;48.92;;;6.00;99.90;;;;;;5051329;28;20032;-60
2023/03/03 08:57:15;;;;;;;55.38;49.63;;;6.00;99.90;;;;;;5051320;28;20485;-59
2023/03/03 08:59:41;;;;;;;54.65;48.85;;;6.10;99.90;;;;;;5053645;28;20067;-59
2023/03/03 09:02:07;;;;;;;54.38;48.40;;;6.10;99.90;;;;;;5054803;28;20021;-59
2023/03/03 09:04:33;;;;;;;53.30;47.45;;;6.10;99.90;;;;;;5055072;28;20036;-60
2023/03/03 09:06:59;;;;;;;54.17;48.35;;;6.30;99.90;;;;;;5054718;28;20036;-59
2023/03/03 09:09:25;;;;;;;55.58;49.40;;;6.40;99.90;;;;;;5054609;28;20096;-59
2023/03/03 09:11:56;;;;;;;56.58;50.58;;;6.50;99.90;;;;;;5054805;28;20104;-60
2023/03/03 09:14:27;;;;;;;54.28;48.50;;;6.50;99.90;;;;;;5054552;28;20106;-60
2023/03/03 09:16:55;;;;;;;56.83;50.78;;;6.60;99.90;;;;;;5054269;28;20029;-60
2023/03/03 09:19:32;;;;;;;55.47;49.13;;;6.70;99.90;;;;;;5054863;28;20075;-59
2023/03/03 09:22:23;;;;;;;56.65;50.65;;;6.80;99.90;;;;;;5054476;28;20109;-60
2023/03/03 09:24:52;;;;;;;54.13;48.20;;;7.00;99.90;;;;;;5054657;28;20021;-60
2023/03/03 09:27:24;;;;;;;52.00;46.53;;;7.00;99.90;;;;;;5054520;28;20025;-59
2023/03/03 09:29:50;;;;;;;56.40;50.20;;;7.10;99.90;;;;;;5054240;28;20079;-60
2023/03/03 09:32:34;;;;;;;50.88;45.42;;;7.20;99.90;;;;;;5054018;28;20033;-59
2023/03/03 09:35:20;;;;;;;52.75;47.13;;;7.40;99.90;;;;;;5054396;28;20025;-60
2023/03/03 09:37:49;;;;;;;52.30;45.40;;;7.40;99.90;;;;;;5054216;28;20053;-60
2023/03/03 09:40:30;;;;;;;52.90;47.35;;;7.40;99.90;;;;;;5054137;28;20021;-59
2023/03/03 09:43:05;;;;;;;55.35;49.28;;;7.70;99.90;;;;;;5053878;28;20035;-59
2023/03/03 09:45:37;;;;;;;57.40;51.17;;;7.80;99.90;;;;;;5054077;28;20052;-59
2023/03/03 09:48:21;;;;;;;50.42;44.92;;;8.10;99.90;;;;;;5054144;28;20027;-60
2023/03/03 09:51:05;;;;;;;49.15;43.60;;;8.40;99.90;;;;;;5053877;28;20044;-60
2023/03/03 09:53:40;;;;;;;114.80;96.68;;;8.30;99.90;;;;;;5054416;28;20489;-59
2023/03/03 09:56:33;;;;;;;54.17;46.13;;;8.40;99.90;;;;;;5053807;28;20025;-60
2023/03/03 09:59:14;;;;;;;51.63;45.83;;;8.50;99.90;;;;;;5053748;28;20091;-60
2023/03/03 10:01:57;;;;;;;49.53;44.25;;;8.70;99.90;;;;;;5053397;28;20028;-59
2023/03/03 10:04:29;;;;;;;76.95;64.32;;;8.80;99.90;;;;;;5053655;28;20032;-60
2023/03/03 10:07:33;;;;;;;63.47;53.10;;;8.90;99.90;;;;;;5054006;28;20017;-60
2023/03/03 10:10:24;;;;;;;50.80;45.22;;;8.70;99.90;;;;;;5031088;28;20573;-60
2023/03/03 10:13:05;;;;;;;47.83;42.58;;;9.20;99.90;;;;;;5015111;28;20422;-60
2023/03/03 10:15:40;;;;;;;49.65;43.30;;;9.50;99.90;;;;;;5030928;28;20052;-60
2023/03/03 10:18:11;;;;;;;49.75;44.38;;;9.70;99.90;;;;;;5031263;28;20025;-60
2023/03/03 10:20:43;;;;;;;51.28;43.38;;;9.80;99.90;;;;;;5031121;28;20439;-60
2023/03/03 10:23:19;;;;;;;54.38;46.38;;;9.90;99.90;;;;;;5031189;28;20549;-60
2023/03/03 10:25:51;;;;;;;47.58;42.63;;;10.10;99.90;;;;;;5031177;28;20061;-60
2023/03/03 10:28:36;;;;;;;48.97;43.75;;;10.60;99.90;;;;;;5031118;28;20076;-60
2023/03/03 10:31:22;;;;;;;48.00;42.83;;;11.00;99.90;;;;;;5030600;28;20414;-60
2023/03/03 10:34:03;;;;;;;98.28;69.55;;;10.90;99.90;;;;;;5030788;28;20034;-60
2023/03/03 10:37:03;;;;;;;85.22;60.05;;;10.90;99.90;;;;;;5030982;28;20112;-60
2023/03/03 10:39:39;;;;;;;51.38;44.92;;;11.00;99.90;;;;;;5030937;28;20082;-60
2023/03/03 10:42:26;;;;;;;55.03;48.90;;;11.50;99.90;;;;;;5030879;28;20447;-60
2023/03/03 10:45:19;;;;;;;47.10;42.05;;;11.90;99.90;;;;;;5030166;28;20034;-59
2023/03/03 10:47:48;;;;;;;99.75;67.38;;;12.20;99.90;;;;;;5050167;28;20039;-59
2023/03/03 10:50:28;;;;;;;104.63;47.17;;;12.50;99.90;;;;;;5052660;28;20032;-59
2023/03/03 10:53:20;;;;;;;50.13;44.42;;;12.70;99.90;;;;;;5052990;28;20025;-59
2023/03/03 10:56:11;;;;;;;80.57;41.80;;;13.10;99.90;;;;;;5052972;28;20025;-60
2023/03/03 10:58:44;;;;;;;63.60;43.03;;;13.10;99.90;;;;;;5052190;28;20029;-60
2023/03/03 11:01:30;;;;;;;50.38;40.97;;;13.20;99.90;;;;;;5052530;28;20029;-60
2023/03/03 11:04:19;;;;;;;44.63;39.75;;;13.30;99.90;;;;;;5052552;28;20043;-60
2023/03/03 11:06:48;;;;;;;44.63;39.67;;;13.60;99.90;;;;;;5030304;28;20121;-60
2023/03/03 11:09:23;;;;;;;45.65;40.60;;;13.50;99.90;;;;;;5030383;28;20045;-61
2023/03/03 11:11:54;;;;;;;45.58;40.65;;;13.90;99.90;;;;;;5030280;28;20049;-60
2023/03/03 11:14:31;;;;;;;45.42;40.30;;;13.80;99.90;;;;;;5030133;28;20061;-61
2023/03/03 11:17:19;;;;;;;44.30;39.50;;;13.60;99.90;;;;;;5030034;28;20040;-60
2023/03/03 11:20:19;;;;;;;69.95;53.13;;;14.10;99.90;;;;;;5030281;28;20037;-60
2023/03/03 11:22:53;;;;;;;44.55;36.80;;;14.30;99.90;;;;;;5029059;28;20033;-60
2023/03/03 11:25:33;;;;;;;44.17;37.60;;;13.00;99.90;;;;;;5030542;28;20526;-61
2023/03/03 11:28:18;;;;;;;112.25;78.03;;;12.40;99.90;;;;;;5029708;28;20052;-60
2023/03/03 11:31:06;;;;;;;183.93;168.52;;;13.40;99.90;;;;;;5029692;28;20049;-60
2023/03/03 11:33:32;;;;;;;47.13;38.47;;;12.90;99.90;;;;;;5030049;28;20025;-60
2023/03/03 11:36:09;;;;;;;82.15;74.95;;;11.60;99.90;;;;;;5030092;28;20026;-60
2023/03/03 11:39:15;;;;;;;43.72;38.92;;;12.40;99.90;;;;;;5030054;28;20112;-60
2023/03/03 11:41:56;;;;;;;40.53;36.13;;;13.40;99.90;;;;;;5029527;28;20086;-60
2023/03/03 11:44:37;;;;;;;41.05;36.63;;;13.70;99.90;;;;;;5045766;28;20069;-60
2023/03/03 11:47:36;;;;;;;41.13;36.63;;;14.50;99.90;;;;;;5052363;28;20021;-61
2023/03/03 11:50:20;;;;;;;41.33;36.92;;;14.30;99.90;;;;;;5032276;28;20033;-60
2023/03/03 11:53:27;;;;;;;39.78;35.53;;;14.40;99.90;;;;;;5032003;28;20375;-61
2023/03/03 11:56:02;;;;;;;39.85;35.50;;;14.10;99.90;;;;;;5010351;28;20065;-61
2023/03/03 11:58:33;;;;;;;43.15;36.60;;;14.00;99.90;;;;;;5009766;28;20033;-60
2023/03/03 12:01:14;;;;;;;39.85;35.45;;;14.20;99.90;;;;;;5009879;28;20164;-61
2023/03/03 12:03:57;;;;;;;46.17;36.20;;;14.10;99.90;;;;;;5010048;28;20034;-61
2023/03/03 12:06:51;;;;;;;39.50;35.20;;;14.70;99.90;;;;;;5010114;28;20042;-61
2023/03/03 12:09:45;;;;;;;39.08;34.53;;;14.40;99.90;;;;;;4951458;28;20279;-61
2023/03/03 12:12:29;;;;;;;39.97;35.13;;;14.80;99.90;;;;;;4951224;28;20059;-60
2023/03/03 12:15:28;;;;;;;38.58;33.80;;;15.10;99.90;;;;;;4951851;28;20047;-60
2023/03/03 12:18:06;;;;;;;38.55;33.03;;;14.90;99.90;;;;;;4951980;28;20086;-61
2023/03/03 12:20:43;;;;;;;39.40;35.22;;;14.30;99.90;;;;;;4951432;28;20031;-61
2023/03/03 12:23:24;;;;;;;41.88;37.30;;;13.60;99.90;;;;;;4951371;29;20122;-61
2023/03/03 12:25:55;;;;;;;39.47;34.13;;;13.90;99.90;;;;;;4951329;28;20077;-61
2023/03/03 12:28:24;;;;;;;40.20;35.90;;;14.60;99.90;;;;;;4951400;29;20046;-61
2023/03/03 12:31:04;;;;;;;37.10;33.22;;;14.70;99.90;;;;;;4951243;29;20214;-61
2023/03/03 12:33:50;;;;;;;37.05;33.17;;;15.10;99.90;;;;;;4968791;28;20045;-61
2023/03/03 12:36:15;;;;;;;39.03;34.92;;;15.40;99.90;;;;;;4974921;28;20042;-61
2023/03/03 12:39:18;;;;;;;39.70;35.50;;;15.30;99.90;;;;;;4974327;28;20030;-61
2023/03/03 12:41:50;;;;;;;41.30;36.90;;;14.50;99.90;;;;;;4973840;28;20461;-61
2023/03/03 12:44:32;;;;;;;39.58;34.78;;;14.70;99.90;;;;;;4974102;28;20046;-61
2023/03/03 12:47:19;;;;;;;41.33;36.55;;;15.00;99.90;;;;;;5044405;28;20033;-61
2023/03/03 12:50:09;;;;;;;39.28;35.17;;;14.50;99.90;;;;;;5031164;28;20042;-61
2023/03/03 12:52:38;;;;;;;42.60;38.15;;;14.60;99.90;;;;;;5035427;28;20030;-61
2023/03/03 12:55:20;;;;;;;42.45;37.78;;;14.70;99.90;;;;;;5034903;28;20071;-61
2023/03/03 12:57:46;;;;;;;49.80;44.58;;;15.00;99.90;;;;;;5035063;28;20029;-61
2023/03/03 13:00:23;;;;;;;42.85;38.50;;;14.30;99.90;;;;;;5035178;28;20018;-61
2023/03/03 13:03:03;;;;;;;39.55;34.17;;;14.10;99.90;;;;;;5034928;28;20053;-61